createdAt,value
2022-11-24T00:01:30.879Z,100228.56
2022-11-24T00:04:04.615Z,100220.75
2022-11-24T00:06:35.768Z,100224.28
2022-11-24T00:09:05.633Z,100229.53
2022-11-24T00:11:36.257Z,100226.91
2022-11-24T00:14:05.337Z,100230.31
2022-11-24T00:16:36.146Z,100231.25
2022-11-24T00:19:09.425Z,100226.84
2022-11-24T00:21:38.845Z,100245.13
2022-11-24T00:24:07.017Z,100239.00
2022-11-24T00:26:37.619Z,100238.94
2022-11-24T00:29:08.009Z,100244.13
2022-11-24T00:31:38.970Z,100250.09
2022-11-24T00:34:11.525Z,100243.91
2022-11-24T00:36:40.567Z,100249.97
2022-11-24T00:39:12.085Z,100262.22
2022-11-24T00:41:39.970Z,100256.16
2022-11-24T00:44:07.825Z,100262.34
2022-11-24T00:46:35.347Z,100264.13
2022-11-24T00:49:04.519Z,100263.25
2022-11-24T00:51:32.037Z,100265.09
2022-11-24T00:54:01.260Z,100257.16
2022-11-24T00:56:29.811Z,100265.88
2022-11-24T00:58:57.882Z,100260.56
2022-11-24T01:01:28.826Z,100257.06
2022-11-24T01:03:56.572Z,100257.81
2022-11-24T01:06:28.502Z,100263.84
2022-11-24T01:08:58.001Z,100264.75
2022-11-24T01:11:53.264Z,100269.97
2022-11-24T01:14:23.090Z,100271.81
2022-11-24T01:16:51.557Z,100276.22
2022-11-24T01:19:18.949Z,100271.94
2022-11-24T01:21:46.909Z,100281.53
2022-11-24T01:24:14.758Z,100280.75
2022-11-24T01:26:42.389Z,100280.81
2022-11-24T01:29:17.632Z,100283.44
2022-11-24T01:31:44.797Z,100279.13
2022-11-24T01:34:13.367Z,100280.09
2022-11-24T01:36:40.544Z,100286.22
2022-11-24T01:39:07.988Z,100291.41
2022-11-24T01:41:35.777Z,100295.75
2022-11-24T01:44:26.027Z,100288.72
2022-11-24T01:47:13.722Z,100287.06
2022-11-24T01:49:51.825Z,100296.69
2022-11-24T01:52:47.353Z,100289.78
2022-11-24T01:55:28.665Z,100293.28
2022-11-24T01:58:22.269Z,100282.03
2022-11-24T02:00:51.017Z,100286.28
2022-11-24T02:03:25.172Z,100285.34
2022-11-24T02:06:19.815Z,100291.31
2022-11-24T02:09:13.751Z,100298.13
2022-11-24T02:11:43.676Z,100291.06
2022-11-24T02:14:15.737Z,100299.78
2022-11-24T02:16:49.216Z,100298.91
2022-11-24T02:19:37.805Z,100311.13
2022-11-24T02:22:28.452Z,100314.72
2022-11-24T02:25:16.712Z,100312.97
2022-11-24T02:27:50.699Z,100313.88
2022-11-24T02:30:20.846Z,100317.41
2022-11-24T02:32:48.185Z,100320.91
2022-11-24T02:35:15.671Z,100321.78
2022-11-24T02:37:42.798Z,100326.97
2022-11-24T02:40:14.345Z,100321.69
2022-11-24T02:42:46.706Z,100323.34
2022-11-24T02:45:16.673Z,100325.03
2022-11-24T02:47:43.936Z,100330.25
2022-11-24T02:50:11.041Z,100336.34
2022-11-24T02:52:38.306Z,100336.34
2022-11-24T02:55:05.774Z,100338.13
2022-11-24T02:57:33.123Z,100341.72
2022-11-24T03:00:00.301Z,100338.25
2022-11-24T03:02:27.638Z,100336.56
2022-11-24T03:04:54.992Z,100341.88
2022-11-24T03:07:23.113Z,100343.69
2022-11-24T03:09:50.337Z,100352.44
2022-11-24T03:12:19.521Z,100349.94
2022-11-24T03:14:46.738Z,100349.09
2022-11-24T03:17:13.805Z,100354.34
2022-11-24T03:19:41.864Z,100358.69
2022-11-24T03:22:09.037Z,100356.09
2022-11-24T03:24:36.321Z,100361.31
2022-11-24T03:27:04.773Z,100351.72
2022-11-24T03:29:32.276Z,100359.53
2022-11-24T03:31:59.569Z,100360.22
2022-11-24T03:34:26.719Z,100365.28
2022-11-24T03:36:53.805Z,100363.44
2022-11-24T03:39:20.927Z,100352.88
2022-11-24T03:41:48.121Z,100366.69
2022-11-24T03:44:15.229Z,100362.13
2022-11-24T03:46:42.495Z,100355.84
2022-11-24T03:49:10.167Z,100361.84
2022-11-24T03:51:37.381Z,100355.75
2022-11-24T03:54:08.157Z,100367.13
2022-11-24T03:56:35.335Z,100363.75
2022-11-24T03:59:02.492Z,100370.81
2022-11-24T04:01:29.687Z,100369.19
2022-11-24T04:03:56.910Z,100370.09
2022-11-24T04:06:24.103Z,100377.97
2022-11-24T04:08:51.336Z,100385.88
2022-11-24T04:11:37.270Z,100383.25
2022-11-24T04:14:13.627Z,100379.78
2022-11-24T04:16:41.310Z,100384.09
2022-11-24T04:19:08.362Z,100384.09
2022-11-24T04:21:37.410Z,100383.16
2022-11-24T04:24:06.638Z,100383.09
2022-11-24T04:26:34.877Z,100392.69
2022-11-24T04:29:02.029Z,100395.19
2022-11-24T04:31:30.165Z,100388.94
2022-11-24T04:33:57.511Z,100386.16
2022-11-24T04:36:24.611Z,100386.91
2022-11-24T04:39:23.378Z,100378.94
2022-11-24T04:41:41.351Z,100380.63
2022-11-24T04:44:08.436Z,100383.25
2022-11-24T04:46:35.454Z,100389.41
2022-11-24T04:49:02.772Z,100397.34
2022-11-24T04:51:29.874Z,100389.56
2022-11-24T04:53:57.110Z,100403.63
2022-11-24T04:56:24.174Z,100403.66
2022-11-24T04:58:51.210Z,100409.81
2022-11-24T05:01:18.291Z,100406.28
2022-11-24T05:03:45.431Z,100411.44
2022-11-24T05:06:12.441Z,100423.53
2022-11-24T05:08:39.666Z,100423.28
2022-11-24T05:11:07.947Z,100426.59
2022-11-24T05:13:35.038Z,100433.41
2022-11-24T05:16:02.138Z,100439.41
2022-11-24T05:18:29.248Z,100438.41
2022-11-24T05:20:58.929Z,100450.50
2022-11-24T05:23:26.630Z,100448.72
2022-11-24T05:25:54.664Z,100453.03
2022-11-24T05:28:21.727Z,100463.44
2022-11-24T05:30:48.790Z,100466.91
2022-11-24T05:33:19.091Z,100469.47
2022-11-24T05:35:48.991Z,100477.31
2022-11-24T05:38:20.285Z,100477.31
2022-11-24T05:40:47.340Z,100481.72
2022-11-24T05:43:20.418Z,100478.19
2022-11-24T05:45:47.457Z,100485.22
2022-11-24T05:48:16.197Z,100479.09
2022-11-24T05:50:43.568Z,100482.59
2022-11-24T05:53:13.763Z,100478.19
2022-11-24T05:55:41.198Z,100486.88
2022-11-24T05:58:10.111Z,100490.19
2022-11-24T06:00:37.629Z,100491.78
2022-11-24T06:03:05.142Z,100502.13
2022-11-24T06:05:32.739Z,100510.69
2022-11-24T06:08:00.754Z,100502.66
2022-11-24T06:10:28.787Z,100507.78
2022-11-24T06:12:55.855Z,100514.72
2022-11-24T06:15:23.627Z,100518.03
2022-11-24T06:17:55.951Z,100517.00
2022-11-24T06:20:29.751Z,100523.91
2022-11-24T06:23:05.149Z,100529.97
2022-11-24T06:25:32.137Z,100533.69
2022-11-24T06:28:05.117Z,100536.56
2022-11-24T06:30:32.344Z,100537.59
2022-11-24T06:32:59.591Z,100548.25
2022-11-24T06:35:26.555Z,100551.03
2022-11-24T06:37:53.566Z,100560.78
2022-11-24T06:40:20.661Z,100563.50
2022-11-24T06:42:52.287Z,100572.34
2022-11-24T06:45:19.428Z,100584.66
2022-11-24T06:47:46.645Z,100583.81
2022-11-24T06:50:13.542Z,100594.38
2022-11-24T06:52:40.694Z,100592.72
2022-11-24T06:55:08.483Z,100591.00
2022-11-24T06:57:36.332Z,100598.91
2022-11-24T07:00:08.044Z,100602.44
2022-11-24T07:02:39.801Z,100602.53
2022-11-24T07:05:09.759Z,100606.03
2022-11-24T07:07:36.791Z,100620.91
2022-11-24T07:10:04.211Z,100624.41
2022-11-24T07:12:35.279Z,100629.63
2022-11-24T07:15:02.382Z,100632.28
2022-11-24T07:17:29.382Z,100644.47
2022-11-24T07:19:57.506Z,100645.38
2022-11-24T07:22:24.527Z,100648.84
2022-11-24T07:24:51.538Z,100653.09
2022-11-24T07:27:18.684Z,100653.94
2022-11-24T07:29:45.736Z,100660.06
2022-11-24T07:32:12.880Z,100660.03
2022-11-24T07:34:39.950Z,100665.28
2022-11-24T07:37:07.091Z,100671.34
2022-11-24T07:39:34.203Z,100679.25
2022-11-24T07:42:05.161Z,100682.72
2022-11-24T07:44:32.427Z,100687.13
2022-11-24T07:47:00.119Z,100695.00
2022-11-24T07:49:27.133Z,100695.84
2022-11-24T07:51:54.177Z,100703.66
2022-11-24T07:54:21.130Z,100704.38
2022-11-24T07:56:49.287Z,100705.19
2022-11-24T07:59:17.426Z,100707.75
2022-11-24T08:01:44.461Z,100719.88
2022-11-24T08:04:11.554Z,100722.53
2022-11-24T08:06:42.065Z,100730.38
2022-11-24T08:09:13.014Z,100729.50
2022-11-24T08:11:39.987Z,100740.81
2022-11-24T08:14:07.133Z,100739.06
2022-11-24T08:16:34.084Z,100751.41
2022-11-24T08:19:01.146Z,100759.28
2022-11-24T08:21:28.263Z,100759.28
2022-11-24T08:23:58.777Z,100777.56
2022-11-24T08:26:26.787Z,100770.50
2022-11-24T08:28:57.110Z,100766.09
2022-11-24T08:31:32.446Z,100779.19
2022-11-24T08:34:00.522Z,100782.66
2022-11-24T08:36:27.577Z,100786.19
2022-11-24T08:38:57.299Z,100785.38
2022-11-24T08:41:25.752Z,100790.53
2022-11-24T08:43:55.022Z,100783.47
2022-11-24T08:46:22.352Z,100792.25
2022-11-24T08:48:52.196Z,100800.94
2022-11-24T08:51:24.375Z,100808.81
2022-11-24T08:53:56.788Z,100813.06
2022-11-24T08:56:24.926Z,100808.56
2022-11-24T08:58:53.739Z,100809.44
2022-11-24T09:01:21.570Z,100814.59
2022-11-24T09:03:51.481Z,100828.53
2022-11-24T09:06:24.877Z,100825.84
2022-11-24T09:08:54.763Z,100819.66
2022-11-24T09:11:22.280Z,100830.94
2022-11-24T09:13:50.605Z,100833.50
2022-11-24T09:16:21.847Z,100834.34
2022-11-24T09:19:03.993Z,100835.22
2022-11-24T09:21:34.350Z,100837.81
2022-11-24T09:24:01.470Z,100851.78
2022-11-24T09:26:32.992Z,100854.94
2022-11-24T09:29:02.042Z,100854.66
2022-11-24T09:31:36.110Z,100852.75
2022-11-24T09:34:11.615Z,100870.28
2022-11-24T09:36:38.770Z,100864.00
2022-11-24T09:39:06.131Z,100869.97
2022-11-24T09:42:03.630Z,100872.50
2022-11-24T09:44:58.729Z,100870.75
2022-11-24T09:47:48.753Z,100877.94
2022-11-24T09:50:26.635Z,100883.25
2022-11-24T09:53:15.425Z,100879.72
2022-11-24T09:55:49.718Z,100890.28
2022-11-24T09:58:43.156Z,100895.50
2022-11-24T10:01:39.162Z,100892.84
2022-11-24T10:04:40.141Z,100901.59
2022-11-24T10:07:45.943Z,100899.81
2022-11-24T10:10:30.285Z,100899.72
2022-11-24T10:13:24.995Z,100907.53
2022-11-24T10:16:34.260Z,100911.91
2022-11-24T10:19:36.302Z,100923.25
2022-11-24T10:22:26.504Z,100927.53
2022-11-24T10:25:03.220Z,100924.88
2022-11-24T10:28:03.555Z,100925.69
2022-11-24T10:30:31.129Z,100929.16
2022-11-24T10:33:17.283Z,100929.88
2022-11-24T10:35:55.435Z,100942.06
2022-11-24T10:38:43.773Z,100933.16
2022-11-24T10:41:29.465Z,100947.94
2022-11-24T10:43:58.134Z,100947.03
2022-11-24T10:46:28.993Z,100940.81
2022-11-24T10:49:04.975Z,100946.03
2022-11-24T10:52:14.860Z,100948.53
2022-11-24T10:55:14.442Z,100953.72
2022-11-24T10:57:41.635Z,100953.69
2022-11-24T11:00:33.286Z,100951.81
2022-11-24T11:03:21.860Z,100956.91
2022-11-24T11:05:54.235Z,100956.84
2022-11-24T11:08:30.277Z,100959.34
2022-11-24T11:11:29.871Z,100966.22
2022-11-24T11:14:04.393Z,100959.09
2022-11-24T11:16:48.401Z,100971.38
2022-11-24T11:19:48.856Z,100970.22
2022-11-24T11:22:37.802Z,100970.91
2022-11-24T11:25:10.634Z,100967.31
2022-11-24T11:27:40.173Z,100968.06
2022-11-24T11:36:16.363Z,100975.59
2022-11-24T11:38:45.247Z,100974.59
2022-11-24T11:41:24.034Z,100969.97
2022-11-24T11:44:16.618Z,100967.25
2022-11-24T11:46:44.999Z,100961.91
2022-11-24T11:49:13.629Z,100959.06
2022-11-24T11:52:26.625Z,100952.69
2022-11-24T11:55:28.399Z,100955.19
2022-11-24T11:58:07.619Z,100949.78
2022-11-24T12:00:46.574Z,100956.59
2022-11-24T12:03:23.987Z,100954.75
2022-11-24T12:06:38.166Z,100954.53
2022-11-24T12:09:23.928Z,100950.94
2022-11-24T12:12:42.278Z,100957.00
2022-11-24T12:15:48.557Z,100961.31
2022-11-24T12:18:59.993Z,100962.97
2022-11-24T12:22:00.795Z,100962.91
2022-11-24T12:25:14.054Z,100967.22
2022-11-24T12:27:50.398Z,100966.28
2022-11-24T12:30:21.920Z,100968.88
2022-11-24T12:33:35.480Z,100973.22
2022-11-24T12:36:54.499Z,100960.88
2022-11-24T12:39:57.818Z,100964.41
2022-11-24T12:42:49.491Z,100972.25
2022-11-24T12:45:28.221Z,100966.00
2022-11-24T12:48:30.392Z,100971.06
2022-11-24T12:50:59.631Z,100971.03
2022-11-24T12:53:34.696Z,100972.78
2022-11-24T12:56:10.905Z,100977.94
2022-11-24T12:59:09.445Z,100977.00
2022-11-24T13:01:50.963Z,100976.94
2022-11-24T13:04:46.866Z,100973.38
2022-11-24T13:07:22.435Z,100977.03
2022-11-24T13:10:54.783Z,100977.03
2022-11-24T13:13:15.906Z,100987.66
2022-11-24T13:16:34.613Z,100991.09
2022-11-24T13:19:00.470Z,100990.19
2022-11-24T13:21:40.759Z,100988.47
2022-11-24T13:24:17.713Z,100984.91
2022-11-24T13:26:50.374Z,100986.69
2022-11-24T13:29:34.002Z,100986.72
2022-11-24T13:32:01.001Z,100990.34
2022-11-24T13:34:40.507Z,100985.97
2022-11-24T13:37:31.271Z,100993.06
2022-11-24T13:40:22.747Z,100986.16
2022-11-24T13:43:01.183Z,100987.06
2022-11-24T13:45:41.020Z,100978.34
2022-11-24T13:48:21.034Z,100983.72
2022-11-24T13:50:52.208Z,100978.53
2022-11-24T13:53:43.661Z,100985.63
2022-11-24T13:56:13.851Z,100979.56
2022-11-24T13:58:46.450Z,100977.06
2022-11-24T14:01:32.476Z,100977.97
2022-11-24T14:04:31.488Z,100978.97
2022-11-24T14:07:15.051Z,100976.41
2022-11-24T14:09:49.999Z,100972.09
2022-11-24T14:12:25.771Z,100975.66
2022-11-24T14:14:57.244Z,100979.19
2022-11-24T14:17:28.256Z,100974.06
2022-11-24T14:19:58.352Z,100961.91
2022-11-24T14:22:39.992Z,100963.84
2022-11-24T14:25:30.187Z,100971.00
2022-11-24T14:27:59.200Z,100968.66
2022-11-24T14:30:27.002Z,100967.94
2022-11-24T14:33:00.178Z,100969.06
2022-11-24T14:35:44.735Z,100969.34
2022-11-24T14:38:13.527Z,100965.16
2022-11-24T14:40:55.421Z,100962.72
2022-11-24T14:43:33.297Z,100956.84
2022-11-24T14:46:17.843Z,100962.38
2022-11-24T14:48:51.837Z,100969.69
2022-11-24T14:51:34.091Z,100973.47
2022-11-24T14:54:06.989Z,100975.47
2022-11-24T14:56:39.295Z,100979.19
2022-11-24T14:59:27.753Z,100981.22
2022-11-24T15:01:59.510Z,100971.81
2022-11-24T15:04:54.807Z,100980.81
2022-11-24T15:07:29.724Z,100989.78
2022-11-24T15:10:03.924Z,100983.00
2022-11-24T15:12:41.061Z,100990.19
2022-11-24T15:15:20.721Z,100989.50
2022-11-24T15:17:56.591Z,100994.97
2022-11-24T15:20:42.316Z,100989.00
2022-11-24T15:23:33.899Z,100986.59
2022-11-24T15:26:03.836Z,100997.22
2022-11-24T15:28:31.658Z,100997.41
2022-11-24T15:31:04.403Z,101001.03
2022-11-24T15:33:31.888Z,101000.31
2022-11-24T15:36:00.384Z,101010.09
2022-11-24T15:38:27.436Z,101015.53
2022-11-24T15:40:59.370Z,101012.16
2022-11-24T15:43:34.949Z,101013.13
2022-11-24T15:46:03.734Z,101014.09
2022-11-24T15:48:31.515Z,101017.72
2022-11-24T15:51:02.062Z,101022.19
2022-11-24T15:53:39.750Z,101017.94
2022-11-24T15:56:22.206Z,101011.00
2022-11-24T15:58:49.311Z,101022.53
2022-11-24T16:01:16.447Z,101021.69
2022-11-24T16:03:48.551Z,101032.25
2022-11-24T16:06:25.366Z,101020.06
2022-11-24T16:08:54.559Z,101028.84
2022-11-24T16:11:23.090Z,101025.41
2022-11-24T16:13:53.325Z,101017.63
2022-11-24T16:16:23.439Z,101023.78
2022-11-24T16:18:50.946Z,101022.13
2022-11-24T16:21:18.112Z,101018.69
2022-11-24T16:23:45.757Z,101019.63
2022-11-24T16:26:12.826Z,101013.56
2022-11-24T16:28:40.629Z,101014.47
2022-11-24T16:31:07.698Z,101019.78
2022-11-24T16:33:34.839Z,101020.69
2022-11-24T16:36:01.910Z,101020.69
2022-11-24T16:38:32.549Z,101021.56
2022-11-24T16:41:00.569Z,101018.94
2022-11-24T16:43:29.771Z,101024.16
2022-11-24T16:46:21.698Z,101018.91
2022-11-24T16:48:55.810Z,101018.94
2022-11-24T16:51:26.141Z,101018.94
2022-11-24T16:54:03.087Z,101019.75
2022-11-24T16:56:32.285Z,101015.44
2022-11-24T16:59:00.145Z,101032.91
2022-11-24T17:01:27.604Z,101025.91
2022-11-24T17:03:54.669Z,101031.19
2022-11-24T17:06:22.164Z,101030.25
2022-11-24T17:08:50.244Z,101032.91
2022-11-24T17:11:24.041Z,101031.19
2022-11-24T17:13:52.424Z,101025.09
2022-11-24T17:16:23.459Z,101019.91
2022-11-24T17:18:51.167Z,101017.28
2022-11-24T17:21:21.884Z,101030.41
2022-11-24T17:23:55.417Z,101026.94
2022-11-24T17:26:23.091Z,101031.28
2022-11-24T17:28:50.530Z,101033.03
2022-11-24T17:31:26.687Z,101026.84
2022-11-24T17:34:01.512Z,101021.56
2022-11-24T17:36:33.811Z,101025.94
2022-11-24T17:39:07.118Z,101031.16
2022-11-24T17:41:36.275Z,101028.53
2022-11-24T17:44:04.201Z,101034.59
2022-11-24T17:46:32.405Z,101032.81
2022-11-24T17:49:00.037Z,101025.81
2022-11-24T17:51:28.033Z,101030.19
2022-11-24T17:53:58.192Z,101033.75
2022-11-24T17:56:27.993Z,101035.50
2022-11-24T17:59:00.417Z,101036.47
2022-11-24T18:01:32.816Z,101038.31
2022-11-24T18:04:00.682Z,101038.34
2022-11-24T18:06:28.977Z,101042.75
2022-11-24T18:09:01.784Z,101034.94
2022-11-24T18:11:32.469Z,101039.34
2022-11-24T18:14:04.553Z,101040.25
2022-11-24T18:16:34.861Z,101039.38
2022-11-24T18:19:09.826Z,101029.78
2022-11-24T18:21:40.779Z,101042.91
2022-11-24T18:24:10.686Z,101041.97
2022-11-24T18:26:43.977Z,101050.66
2022-11-24T18:29:12.379Z,101044.56
2022-11-24T18:31:40.220Z,101045.41
2022-11-24T18:34:08.186Z,101046.31
2022-11-24T18:36:36.301Z,101035.84
2022-11-24T18:39:07.671Z,101035.00
2022-11-24T18:41:35.474Z,101046.38
2022-11-24T18:44:04.448Z,101035.94
2022-11-24T18:46:31.574Z,101044.69
2022-11-24T18:48:59.355Z,101032.44
2022-11-24T18:51:27.170Z,101034.16
2022-11-24T18:53:54.710Z,101027.19
2022-11-24T18:56:21.840Z,101032.47
2022-11-24T18:58:53.697Z,101025.50
2022-11-24T19:01:24.772Z,101036.91
2022-11-24T19:03:58.674Z,101032.63
2022-11-24T19:06:33.145Z,101035.31
2022-11-24T19:09:03.106Z,101032.78
2022-11-24T19:11:35.318Z,101025.84
2022-11-24T19:14:05.389Z,101031.16
2022-11-24T19:16:33.069Z,101025.94
2022-11-24T19:19:02.900Z,101022.47
2022-11-24T19:21:37.241Z,101028.63
2022-11-24T19:24:13.150Z,101026.03
2022-11-24T19:26:41.381Z,101028.66
2022-11-24T19:29:08.862Z,101030.44
2022-11-24T19:31:41.212Z,101018.22
2022-11-24T19:34:08.501Z,101021.72
2022-11-24T19:36:36.373Z,101027.88
2022-11-24T19:39:05.208Z,101022.66
2022-11-24T19:41:34.055Z,101015.69
2022-11-24T19:44:01.645Z,101013.97
2022-11-24T19:46:30.356Z,101017.50
2022-11-24T19:49:01.515Z,101013.13
2022-11-24T19:51:35.821Z,101008.78
2022-11-24T19:54:10.119Z,101021.84
2022-11-24T19:56:37.495Z,101019.25
2022-11-24T19:59:06.452Z,101010.53
2022-11-24T20:01:39.249Z,101005.34
2022-11-24T20:04:11.525Z,101010.56
2022-11-24T20:06:42.507Z,101014.03
2022-11-24T20:09:14.298Z,101001.81
2022-11-24T20:11:42.310Z,101011.41
2022-11-24T20:14:15.171Z,101002.66
2022-11-24T20:16:42.437Z,101003.53
2022-11-24T20:19:13.350Z,101009.66
2022-11-24T20:21:45.946Z,101014.94
2022-11-24T20:24:23.249Z,101017.56
2022-11-24T20:26:56.730Z,101015.84
2022-11-24T20:29:24.877Z,101015.88
2022-11-24T20:31:55.496Z,101007.19
2022-11-24T20:34:23.740Z,101020.31
2022-11-24T20:36:52.700Z,101013.38
2022-11-24T20:39:27.032Z,101008.19
2022-11-24T20:41:55.534Z,101010.84
2022-11-24T20:44:26.388Z,101017.81
2022-11-24T20:46:57.172Z,101021.31
2022-11-24T20:49:24.148Z,101020.41
2022-11-24T20:51:54.441Z,101023.00
2022-11-24T20:54:22.845Z,101016.84
2022-11-24T20:56:53.320Z,101021.19
2022-11-24T20:59:23.737Z,101014.16
2022-11-24T21:01:54.982Z,101021.91
2022-11-24T21:04:26.563Z,101023.56
2022-11-24T21:06:54.643Z,101022.63
2022-11-24T21:09:21.949Z,101020.78
2022-11-24T21:11:48.980Z,101009.34
2022-11-24T21:14:16.330Z,101016.28
2022-11-24T21:16:43.560Z,101008.38
2022-11-24T21:19:14.489Z,101006.59
2022-11-24T21:21:43.066Z,101002.19
2022-11-24T21:24:17.303Z,101012.66
2022-11-24T21:26:51.696Z,100996.00
2022-11-24T21:29:23.275Z,100997.75
2022-11-24T21:31:50.446Z,100996.78
2022-11-24T21:34:18.958Z,100995.91
2022-11-24T21:36:47.126Z,100996.75
2022-11-24T21:39:15.747Z,100995.00
2022-11-24T21:41:43.604Z,101001.97
2022-11-24T21:44:13.479Z,101001.03
2022-11-24T21:46:46.261Z,100999.28
2022-11-24T21:49:18.355Z,100988.81
2022-11-24T21:51:45.466Z,100990.53
2022-11-24T21:54:12.466Z,100989.63
2022-11-24T21:56:39.480Z,100979.97
2022-11-24T21:59:06.489Z,100977.31
2022-11-24T22:01:33.615Z,100976.44
2022-11-24T22:04:00.754Z,100971.16
2022-11-24T22:06:27.857Z,100975.53
2022-11-24T22:08:57.027Z,100978.16
2022-11-24T22:11:26.974Z,100973.78
2022-11-24T22:13:53.929Z,100970.31
2022-11-24T22:16:25.816Z,100968.53
2022-11-24T22:18:53.129Z,100959.78
2022-11-24T22:21:24.281Z,100969.41
2022-11-24T22:23:52.710Z,100961.59
2022-11-24T22:26:23.793Z,100952.91
2022-11-24T22:28:51.455Z,100945.06
2022-11-24T22:31:25.000Z,100944.22
2022-11-24T22:33:53.877Z,100953.81
2022-11-24T22:36:24.421Z,100949.41
2022-11-24T22:38:56.397Z,100947.69
2022-11-24T22:41:24.618Z,100939.81
2022-11-24T22:43:51.881Z,100932.91
2022-11-24T22:46:22.489Z,100930.31
2022-11-24T22:48:54.603Z,100929.50
2022-11-24T22:51:26.865Z,100931.31
2022-11-24T22:54:00.431Z,100926.06
2022-11-24T22:56:33.800Z,100919.97
2022-11-24T22:59:04.615Z,100922.59
2022-11-24T23:01:33.766Z,100921.72
2022-11-24T23:04:03.612Z,100922.59
2022-11-24T23:06:33.390Z,100926.06
2022-11-24T23:09:04.128Z,100917.34
2022-11-24T23:11:40.910Z,100921.69
2022-11-24T23:14:14.051Z,100926.94
2022-11-24T23:16:42.331Z,100924.31
2022-11-24T23:19:09.853Z,100920.84
2022-11-24T23:21:38.487Z,100922.56
2022-11-24T23:24:07.700Z,100914.69
2022-11-24T23:26:40.698Z,100912.94
2022-11-24T23:29:09.939Z,100917.25
2022-11-24T23:31:39.832Z,100912.00
2022-11-24T23:34:07.838Z,100911.09
2022-11-24T23:36:34.848Z,100908.44
2022-11-24T23:39:08.524Z,100906.56
2022-11-24T23:41:35.638Z,100907.41
2022-11-24T23:44:03.014Z,100897.72
2022-11-24T23:46:31.000Z,100909.03
2022-11-24T23:48:58.413Z,100910.72
2022-11-24T23:51:30.371Z,100897.56
2022-11-24T23:53:59.363Z,100904.47
2022-11-24T23:56:32.921Z,100918.41
2022-11-24T23:59:03.790Z,100931.47
